Peotone Weather

Nearby METAR Reports

 

KIGQ - Lansing, Illinois, USA
Distance from station: NE 19mi, 30km
Updated: Mon, 03-Oct-2022 4:15pm CDT
Clear
Clear
 Wind from E
Wind: E 6 mph , 9 km/h
Temperature: 64°F , 18°C
Dew Point: 45°F , 7°C
Humidity: 49%
Barometer: 30.32 inHg , 1026.8 hPa
Clouds: Clear
Visibility: 10 miles , 16 km
2022/10/03 21:15 KIGQ 032115Z AUTO 08005KT 10SM CLR 18/07 A3032 RMK AO2 T01750072
KIKK - Kankakee, Illinois, USA
Distance from station: S 19mi, 30km
Updated: Mon, 03-Oct-2022 4:15pm CDT
Clear
Clear
 Wind from E
Wind: E 3 mph , 6 km/h
Temperature: 70°F , 21°C
Dew Point: 30°F , -1°C
Humidity: 23%
Barometer: 30.30 inHg , 1026.1 hPa
Clouds: Clear
Visibility: 10 miles , 16 km
2022/10/03 21:15 KIKK 032115Z AUTO 08003KT 10SM CLR 21/M01 A3030 RMK AO2 T02141013
 
KSJC - Joliet, Illinois, USA
Distance from station: WNW 24mi, 38km
Updated: Mon, 03-Oct-2022 3:53pm CDT
Clear
Clear
 Wind from NW
Wind: NW 9 mph , 15 km/h
Temperature: 73°F , 23°C
Dew Point: 54°F , 12°C
Humidity: 50%
Barometer: 30.03 inHg , 1016.9 hPa
Clouds: Clear
Visibility: 10 miles , 16 km
2022/10/03 20:53 KSJC 032053Z 32008KT 270V350 10SM CLR 23/12 A3003 RMK AO2 SLP167 T02330122 58015 $
KLOT - Romeoville, Illinois, USA
Distance from station: NW 26mi, 41km
Updated: Mon, 03-Oct-2022 4:15pm CDT
Clear
Clear
 
Temperature: 68°F , 20°C
Dew Point: 37°F , 3°C
Humidity: 33%
Barometer: 30.31 inHg , 1026.4 hPa
Clouds: Clear
Visibility: 10 miles , 16 km
2022/10/03 21:15 KLOT 032115Z AUTO 10SM CLR 20/03 A3031 RMK AO2
 
KMDW - Midway Airport Chicago, Illinois, USA
Distance from station: N 31mi, 50km
Updated: Mon, 03-Oct-2022 3:53pm CDT
Few Clouds
Few Clouds
 Wind from ENE
Wind: ENE 8 mph , 13 km/h
Temperature: 68°F , 20°C
Dew Point: 39°F , 4°C
Humidity: 35%
Barometer: 30.31 inHg , 1026.4 hPa
Clouds: Few Clouds
Visibility: 10 miles , 16 km
Cloud details: Few Clouds 25000 ft
2022/10/03 20:53 KMDW 032053Z 07007KT 10SM FEW250 20/04 A3031 RMK AO2 SLP263 T02000044 58015
KC09 - Morris, Illinois, USA
Distance from station: W 34mi, 54km
Updated: Mon, 03-Oct-2022 4:15pm CDT
Clear
Clear
 Wind from E
Wind: E 6 mph , 9 km/h
Temperature: 72°F , 22°C
Dew Point: 39°F , 4°C
Humidity: 31%
Barometer: 30.29 inHg , 1025.7 hPa
Clouds: Clear
Visibility: 10 miles , 16 km
2022/10/03 21:15 KC09 032115Z AUTO 09005KT 10SM CLR 22/04 A3029 RMK AO2 T02150038

Metar display script from Saratoga-Weather.org